Time;durP1;ratioP1;P1;durP2;ratioP2;P2;SDS_P1;SDS_P2;PMS_P1;PMS_P2;Temp;Humidity;BMP_temperature;BMP_pressure;BME280_temperature;BME280_humidity;BME280_pressure;Samples;Min_cycle;Max_cycle;Signal;HPM_P1;HPM_P2
2022/08/05 00:01:00;;;;;;;12.32;3.40;;;18.50;99.90;;;;;;5066091;28;20554;-67
2022/08/05 00:03:25;;;;;;;8.38;3.40;;;18.50;99.90;;;;;;5072705;28;20123;-67
2022/08/05 00:05:51;;;;;;;10.70;3.42;;;18.40;99.90;;;;;;5058349;28;20037;-68
2022/08/05 00:08:18;;;;;;;8.25;3.13;;;18.50;99.90;;;;;;5053169;28;20079;-67
2022/08/05 00:10:44;;;;;;;10.20;3.53;;;18.50;99.90;;;;;;5054445;28;20479;-67
2022/08/05 00:13:10;;;;;;;9.73;3.47;;;18.50;99.90;;;;;;5038222;28;20052;-67
2022/08/05 00:15:35;;;;;;;6.38;2.88;;;18.50;99.90;;;;;;5043126;28;20403;-65
2022/08/05 00:18:01;;;;;;;7.25;3.13;;;18.50;99.90;;;;;;5051436;28;20045;-67
2022/08/05 00:20:27;;;;;;;9.00;3.20;;;18.50;99.90;;;;;;5039381;28;20392;-67
2022/08/05 00:22:52;;;;;;;7.72;3.25;;;18.40;99.90;;;;;;5052398;28;20037;-67
2022/08/05 00:25:18;;;;;;;11.02;2.80;;;18.40;99.90;;;;;;5052451;28;20544;-68
2022/08/05 00:27:45;;;;;;;7.75;2.90;;;18.50;99.90;;;;;;5036060;28;20041;-67
2022/08/05 00:30:11;;;;;;;9.07;3.08;;;18.50;99.90;;;;;;5053120;28;20037;-68
2022/08/05 00:32:37;;;;;;;8.60;3.05;;;18.50;99.90;;;;;;5072304;28;20521;-67
2022/08/05 00:35:03;;;;;;;6.95;2.92;;;18.60;99.90;;;;;;5051861;28;20064;-67
2022/08/05 00:37:28;;;;;;;10.90;3.63;;;18.50;99.90;;;;;;5071492;28;20072;-66
2022/08/05 00:39:54;;;;;;;10.35;3.10;;;18.50;99.90;;;;;;5072074;28;20477;-65
2022/08/05 00:42:34;;;;;;;11.05;3.40;;;18.50;99.90;;;;;;5075355;28;20036;-68
2022/08/05 00:45:01;;;;;;;9.13;2.75;;;18.50;99.90;;;;;;5065808;28;20129;-67
2022/08/05 00:47:27;;;;;;;5.60;2.78;;;18.50;99.90;;;;;;5039006;28;20455;-65
2022/08/05 00:49:52;;;;;;;6.00;2.90;;;18.40;99.90;;;;;;5056277;28;20124;-67
2022/08/05 00:52:19;;;;;;;10.07;3.33;;;18.40;99.90;;;;;;5038319;28;20040;-67
2022/08/05 00:54:45;;;;;;;6.40;2.80;;;18.30;99.90;;;;;;5037895;28;20076;-68
2022/08/05 00:57:11;;;;;;;8.35;3.33;;;18.30;99.90;;;;;;5064185;28;20466;-67
2022/08/05 00:59:37;;;;;;;9.70;3.80;;;18.30;99.90;;;;;;5061066;28;20041;-66
2022/08/05 01:02:03;;;;;;;8.05;3.30;;;18.40;99.90;;;;;;5037921;28;20044;-67
2022/08/05 01:04:29;;;;;;;8.32;3.83;;;18.20;99.90;;;;;;5062431;28;20051;-67
2022/08/05 01:06:54;;;;;;;7.43;3.70;;;18.20;99.90;;;;;;5076000;28;20037;-67
2022/08/05 01:09:20;;;;;;;7.07;3.90;;;18.20;99.90;;;;;;5074950;28;20037;-67
2022/08/05 01:11:50;;;;;;;12.60;4.70;;;18.20;99.90;;;;;;5055815;28;20047;-67
2022/08/05 01:14:42;;;;;;;7.80;3.22;;;18.20;99.90;;;;;;5042288;28;20049;-68
2022/08/05 01:17:09;;;;;;;8.93;3.63;;;18.20;99.90;;;;;;5055478;28;20086;-67
2022/08/05 01:20:17;;;;;;;9.20;3.70;;;18.20;99.90;;;;;;5075185;28;20049;-66
2022/08/05 01:23:12;;;;;;;7.78;3.28;;;18.20;99.90;;;;;;5075336;28;20068;-67
2022/08/05 01:25:57;;;;;;;10.85;3.83;;;18.20;99.90;;;;;;5013148;28;20118;-68
2022/08/05 01:28:30;;;;;;;7.43;3.00;;;18.20;99.90;;;;;;5058103;28;20045;-67
2022/08/05 01:31:03;;;;;;;7.93;3.47;;;18.20;99.90;;;;;;5064204;28;20072;-67
2022/08/05 01:33:42;;;;;;;8.05;3.60;;;18.20;99.90;;;;;;5055585;28;20044;-66
2022/08/05 01:36:12;;;;;;;10.70;3.15;;;18.20;99.90;;;;;;5057312;28;20044;-66
2022/08/05 01:38:39;;;;;;;8.75;3.15;;;18.30;99.90;;;;;;5075051;28;20094;-67
2022/08/05 01:41:06;;;;;;;8.70;3.37;;;18.30;99.90;;;;;;5065806;28;20048;-66
2022/08/05 01:43:33;;;;;;;13.07;4.07;;;18.30;99.90;;;;;;5055342;28;20049;-66
2022/08/05 01:46:00;;;;;;;9.40;3.58;;;18.30;99.90;;;;;;5053122;28;20418;-68
2022/08/05 01:48:28;;;;;;;10.37;3.97;;;18.30;99.90;;;;;;5066056;28;20048;-68
2022/08/05 01:50:57;;;;;;;8.20;3.53;;;18.30;99.90;;;;;;5055348;28;20109;-66
2022/08/05 01:53:24;;;;;;;6.82;3.30;;;18.30;99.90;;;;;;5054405;28;20127;-67
2022/08/05 01:55:51;;;;;;;6.03;3.38;;;18.30;99.90;;;;;;5055004;28;20041;-67
2022/08/05 01:58:18;;;;;;;6.13;3.20;;;18.40;99.90;;;;;;5066259;28;20041;-66
2022/08/05 02:00:49;;;;;;;6.78;3.28;;;18.30;99.90;;;;;;5074864;28;20036;-67
2022/08/05 02:03:50;;;;;;;9.18;3.53;;;18.30;99.90;;;;;;5074170;28;20106;-68
2022/08/05 02:06:16;;;;;;;6.95;3.90;;;18.30;99.90;;;;;;5021843;28;20055;-67
2022/08/05 02:08:42;;;;;;;7.45;3.55;;;18.40;99.90;;;;;;5074555;28;20078;-67
2022/08/05 02:11:12;;;;;;;9.77;3.47;;;18.40;99.90;;;;;;5043004;28;20044;-67
2022/08/05 02:14:04;;;;;;;6.97;3.17;;;18.40;99.90;;;;;;5063160;28;20128;-67
2022/08/05 02:16:47;;;;;;;6.18;3.33;;;18.30;99.90;;;;;;5054279;28;20052;-67
2022/08/05 02:19:23;;;;;;;8.73;3.13;;;18.30;99.90;;;;;;5047172;28;20462;-66
2022/08/05 02:22:00;;;;;;;7.63;3.05;;;18.20;99.90;;;;;;5053673;28;20045;-66
2022/08/05 02:24:35;;;;;;;8.10;2.85;;;18.20;99.90;;;;;;5035325;28;20056;-66
2022/08/05 02:27:05;;;;;;;8.30;3.38;;;18.20;99.90;;;;;;5054514;28;20146;-68
2022/08/05 02:29:34;;;;;;;6.45;3.13;;;18.20;99.90;;;;;;5019874;28;20041;-67
2022/08/05 02:32:00;;;;;;;6.65;3.40;;;18.20;99.90;;;;;;5036402;28;20095;-67
2022/08/05 02:34:30;;;;;;;8.43;2.95;;;18.30;99.90;;;;;;5040722;28;20062;-66
2022/08/05 02:36:59;;;;;;;7.65;3.00;;;18.20;99.90;;;;;;5035277;28;20120;-66
2022/08/05 02:39:28;;;;;;;7.15;2.97;;;18.20;99.90;;;;;;5016277;28;20404;-67
2022/08/05 02:41:55;;;;;;;10.55;3.40;;;18.20;99.90;;;;;;5016642;28;20041;-66
2022/08/05 02:44:23;;;;;;;10.73;3.33;;;18.10;99.90;;;;;;5032458;28;20044;-67
2022/08/05 02:46:51;;;;;;;8.20;2.63;;;18.10;99.90;;;;;;5033709;28;20050;-68
2022/08/05 02:49:18;;;;;;;9.85;2.78;;;18.10;99.90;;;;;;5052789;28;20045;-67
2022/08/05 02:51:44;;;;;;;8.27;3.05;;;18.10;99.90;;;;;;5040079;28;20092;-68
2022/08/05 02:54:12;;;;;;;4.38;2.70;;;18.10;99.90;;;;;;5033440;28;20050;-66
2022/08/05 02:56:40;;;;;;;7.60;2.78;;;18.10;99.90;;;;;;5033282;28;20522;-67
2022/08/05 02:59:11;;;;;;;12.23;3.08;;;18.10;99.90;;;;;;5050168;28;20044;-67
2022/08/05 03:01:39;;;;;;;7.28;2.63;;;18.20;99.90;;;;;;5054010;28;20045;-66
2022/08/05 03:04:09;;;;;;;5.68;2.55;;;18.20;99.90;;;;;;5034156;28;20045;-68
2022/08/05 03:06:41;;;;;;;8.00;2.80;;;18.20;99.90;;;;;;5012867;28;20081;-67
2022/08/05 03:09:07;;;;;;;7.38;2.70;;;18.20;99.90;;;;;;5015474;28;20128;-67
2022/08/05 03:11:32;;;;;;;11.00;2.78;;;18.30;99.90;;;;;;5016002;28;20132;-66
2022/08/05 03:13:58;;;;;;;6.93;2.65;;;18.20;99.90;;;;;;5016308;28;20128;-67
2022/08/05 03:16:24;;;;;;;9.48;3.40;;;18.20;99.90;;;;;;5033107;28;20377;-67
2022/08/05 03:18:50;;;;;;;7.22;2.70;;;18.20;99.90;;;;;;5027502;28;20037;-67
2022/08/05 03:21:18;;;;;;;7.00;3.25;;;18.20;99.90;;;;;;5035237;28;20037;-67
2022/08/05 03:23:44;;;;;;;6.15;2.78;;;18.10;99.90;;;;;;5053212;28;20440;-67
2022/08/05 03:26:10;;;;;;;6.70;2.80;;;18.20;99.90;;;;;;5034407;28;20098;-68
2022/08/05 03:28:39;;;;;;;10.57;2.90;;;18.20;99.90;;;;;;5039006;28;20046;-66
2022/08/05 03:31:06;;;;;;;8.23;2.88;;;18.20;99.90;;;;;;5015200;28;20076;-66
2022/08/05 03:33:32;;;;;;;8.70;4.03;;;18.20;99.90;;;;;;5036937;28;20063;-67
2022/08/05 03:35:58;;;;;;;10.15;2.72;;;18.20;99.90;;;;;;5054689;28;20083;-67
2022/08/05 03:38:25;;;;;;;6.50;2.65;;;18.20;99.90;;;;;;5072234;28;20393;-67
2022/08/05 03:40:54;;;;;;;11.40;3.17;;;18.20;99.90;;;;;;5063025;28;20049;-67
2022/08/05 03:43:23;;;;;;;7.07;2.95;;;18.10;99.90;;;;;;5052793;28;20098;-66
2022/08/05 03:45:51;;;;;;;7.80;3.47;;;18.10;99.90;;;;;;5055782;28;20072;-66
2022/08/05 03:48:17;;;;;;;6.55;3.03;;;18.10;99.90;;;;;;5062517;28;20479;-66
2022/08/05 03:51:03;;;;;;;5.90;2.90;;;18.20;99.90;;;;;;5035016;28;20051;-67
2022/08/05 03:53:36;;;;;;;7.18;2.60;;;18.10;99.90;;;;;;5034683;28;20562;-67
2022/08/05 03:56:28;;;;;;;6.55;2.85;;;18.10;99.90;;;;;;5051576;28;20037;-65
2022/08/05 03:59:08;;;;;;;5.95;3.00;;;18.10;99.90;;;;;;5037410;28;20060;-67
2022/08/05 04:01:38;;;;;;;8.73;2.70;;;18.10;99.90;;;;;;5036192;28;20123;-66
2022/08/05 04:04:05;;;;;;;4.68;2.50;;;18.10;99.90;;;;;;5066813;28;20115;-66
2022/08/05 04:06:33;;;;;;;10.75;3.17;;;18.10;99.90;;;;;;5072659;28;20119;-67
2022/08/05 04:09:00;;;;;;;8.85;3.13;;;18.00;99.90;;;;;;5072245;28;20551;-69
2022/08/05 04:11:28;;;;;;;6.07;2.60;;;18.00;99.90;;;;;;5055081;28;20045;-67
2022/08/05 04:13:55;;;;;;;6.85;2.70;;;18.10;99.90;;;;;;5071983;28;20141;-68
2022/08/05 04:16:21;;;;;;;6.78;3.15;;;18.10;99.90;;;;;;5064100;28;20049;-67
2022/08/05 04:18:47;;;;;;;11.65;3.45;;;18.20;99.90;;;;;;5051492;28;20067;-67
2022/08/05 04:21:13;;;;;;;7.88;2.90;;;18.10;99.90;;;;;;5071050;28;20351;-67
2022/08/05 04:23:42;;;;;;;6.85;2.97;;;18.00;99.90;;;;;;5034815;28;20045;-68
2022/08/05 04:26:08;;;;;;;6.97;2.90;;;18.00;99.90;;;;;;5050926;28;20048;-67
2022/08/05 04:28:36;;;;;;;13.38;2.80;;;18.00;99.90;;;;;;5053065;28;20041;-67
2022/08/05 04:31:05;;;;;;;6.57;2.88;;;18.00;99.90;;;;;;5051936;28;20045;-68
2022/08/05 04:33:30;;;;;;;7.57;2.70;;;18.00;99.90;;;;;;5034629;28;20191;-67
2022/08/05 04:35:59;;;;;;;7.18;2.42;;;17.90;99.90;;;;;;5051435;28;20120;-67
2022/08/05 04:38:25;;;;;;;8.10;2.40;;;17.90;99.90;;;;;;5033366;28;20171;-68
2022/08/05 04:40:51;;;;;;;5.80;2.33;;;18.00;99.90;;;;;;5051657;28;20116;-66
2022/08/05 04:43:17;;;;;;;8.48;2.67;;;17.90;99.90;;;;;;5034329;28;20045;-68
2022/08/05 04:45:43;;;;;;;6.65;3.08;;;17.90;99.90;;;;;;5051786;28;20041;-67
2022/08/05 04:48:11;;;;;;;6.82;2.90;;;17.90;99.90;;;;;;5051234;28;20088;-68
2022/08/05 04:50:39;;;;;;;8.63;2.65;;;17.90;99.90;;;;;;5052190;28;20049;-67
2022/08/05 04:53:04;;;;;;;7.05;2.35;;;18.00;99.90;;;;;;5069510;28;20517;-67
2022/08/05 04:55:30;;;;;;;9.07;2.63;;;18.00;99.90;;;;;;5051425;28;20131;-68
2022/08/05 04:57:56;;;;;;;6.53;2.20;;;18.00;99.90;;;;;;5037632;28;20036;-68
2022/08/05 05:00:24;;;;;;;6.07;2.40;;;18.10;99.90;;;;;;5072083;28;20330;-66
2022/08/05 05:02:50;;;;;;;;;;;18.00;99.90;;;;;;5071048;28;20051;-67
2022/08/05 05:05:16;;;;;;;5.85;2.53;;;18.00;99.90;;;;;;5059346;28;19925;-66
2022/08/05 05:07:42;;;;;;;7.95;2.95;;;18.00;99.90;;;;;;5033786;28;20052;-67
2022/08/05 05:10:07;;;;;;;8.68;2.80;;;18.00;99.90;;;;;;5051980;28;20053;-67
2022/08/05 05:12:33;;;;;;;6.75;3.22;;;18.00;99.90;;;;;;5071892;28;20491;-67
2022/08/05 05:15:02;;;;;;;5.07;2.63;;;18.10;99.90;;;;;;5071701;28;20055;-67
2022/08/05 05:17:37;;;;;;;6.35;2.72;;;18.10;99.90;;;;;;5069288;28;20052;-67
2022/08/05 05:20:04;;;;;;;7.10;3.10;;;18.00;99.90;;;;;;5053083;28;20447;-67
2022/08/05 05:22:30;;;;;;;9.20;3.20;;;18.00;99.90;;;;;;5071937;28;20082;-68
2022/08/05 05:24:55;;;;;;;6.13;3.28;;;18.00;99.90;;;;;;5065919;28;20076;-68
2022/08/05 05:27:21;;;;;;;10.65;3.45;;;18.00;99.90;;;;;;5051701;28;20037;-67
2022/08/05 05:29:47;;;;;;;7.50;3.00;;;18.00;99.90;;;;;;5055528;28;20041;-68
2022/08/05 05:32:12;;;;;;;6.28;2.90;;;18.00;99.90;;;;;;5059004;28;20045;-67
2022/08/05 05:34:38;;;;;;;7.32;3.03;;;18.00;99.90;;;;;;5021818;28;20049;-67
2022/08/05 05:37:04;;;;;;;4.72;2.85;;;18.00;99.90;;;;;;5054842;28;20045;-67
2022/08/05 05:39:29;;;;;;;8.65;3.22;;;17.90;99.90;;;;;;5054144;28;20041;-68
2022/08/05 05:41:55;;;;;;;7.78;2.97;;;18.00;99.90;;;;;;5054677;28;20045;-67
2022/08/05 05:44:23;;;;;;;7.75;2.85;;;17.90;99.90;;;;;;5070292;28;20036;-67
2022/08/05 05:46:49;;;;;;;5.47;2.90;;;17.90;99.90;;;;;;5075003;28;20131;-68
2022/08/05 05:49:15;;;;;;;4.95;2.60;;;18.00;99.90;;;;;;5056247;28;20406;-67
2022/08/05 05:51:40;;;;;;;5.10;2.90;;;17.90;99.90;;;;;;5074320;28;20402;-67
2022/08/05 05:54:06;;;;;;;5.95;2.80;;;17.90;99.90;;;;;;5056598;28;20110;-67
2022/08/05 05:56:32;;;;;;;7.13;3.15;;;17.80;99.90;;;;;;5075027;28;20037;-67
2022/08/05 05:58:58;;;;;;;6.82;2.97;;;17.90;99.90;;;;;;5059615;28;20109;-66
2022/08/05 06:01:23;;;;;;;5.55;3.08;;;17.90;99.90;;;;;;5065131;28;20045;-67
2022/08/05 06:03:49;;;;;;;6.72;2.70;;;17.90;99.90;;;;;;5036683;28;20056;-69
2022/08/05 06:06:15;;;;;;;8.13;3.05;;;17.90;99.90;;;;;;5046552;28;20057;-67
2022/08/05 06:08:46;;;;;;;6.07;3.15;;;17.90;99.90;;;;;;5054614;28;20045;-67
2022/08/05 06:11:12;;;;;;;4.95;2.80;;;17.90;99.90;;;;;;5036696;28;20045;-67
2022/08/05 06:13:37;;;;;;;6.10;2.92;;;17.90;99.90;;;;;;5054573;28;20040;-67
2022/08/05 06:16:03;;;;;;;5.40;2.85;;;18.00;99.90;;;;;;5054281;28;20124;-67
2022/08/05 06:18:29;;;;;;;8.00;2.85;;;18.00;99.90;;;;;;5054779;28;20168;-67
2022/08/05 06:20:55;;;;;;;7.07;2.63;;;18.10;99.90;;;;;;5066115;28;20115;-67
2022/08/05 06:23:21;;;;;;;6.38;2.40;;;18.30;99.90;;;;;;5056908;28;20072;-67
2022/08/05 06:25:50;;;;;;;3.67;2.13;;;18.40;99.90;;;;;;5054633;28;20045;-67
2022/08/05 06:28:18;;;;;;;3.03;2.03;;;18.50;99.90;;;;;;5054275;28;20041;-66
2022/08/05 06:30:44;;;;;;;13.05;2.70;;;18.50;99.90;;;;;;5054078;28;20483;-67
2022/08/05 06:33:11;;;;;;;3.90;2.00;;;18.60;99.90;;;;;;5053430;28;20041;-68
2022/08/05 06:35:37;;;;;;;4.20;2.10;;;18.70;99.90;;;;;;5062092;28;20383;-66
2022/08/05 06:38:03;;;;;;;6.00;1.95;;;18.90;99.90;;;;;;5040856;28;20171;-68
2022/08/05 06:40:29;;;;;;;6.70;2.25;;;19.00;99.90;;;;;;5035889;28;20075;-68
2022/08/05 06:42:55;;;;;;;3.80;1.88;;;19.10;99.90;;;;;;5053980;28;20049;-66
2022/08/05 06:45:21;;;;;;;5.50;1.77;;;19.20;99.90;;;;;;5054105;28;20041;-68
2022/08/05 06:47:47;;;;;;;3.60;1.80;;;19.30;99.90;;;;;;5053584;28;20116;-67
2022/08/05 06:50:13;;;;;;;4.10;1.50;;;19.50;99.90;;;;;;5037569;28;20541;-68
2022/08/05 06:52:39;;;;;;;4.53;1.65;;;19.60;99.90;;;;;;5036168;28;20511;-66
2022/08/05 06:55:05;;;;;;;2.72;1.50;;;19.70;99.90;;;;;;5053753;28;20033;-67
2022/08/05 06:57:31;;;;;;;4.65;1.60;;;19.90;99.90;;;;;;5059357;28;20041;-67
2022/08/05 06:59:57;;;;;;;3.05;1.42;;;19.90;99.90;;;;;;5073718;28;20470;-67
2022/08/05 07:02:47;;;;;;;3.40;1.30;;;19.90;99.90;;;;;;5071108;28;20478;-67
2022/08/05 07:05:13;;;;;;;5.15;1.30;;;19.90;99.90;;;;;;5071137;28;20037;-68
2022/08/05 07:07:43;;;;;;;3.40;1.30;;;19.80;99.90;;;;;;5054704;28;20037;-67
2022/08/05 07:10:09;;;;;;;4.53;1.30;;;19.80;99.90;;;;;;5038862;28;20044;-67
2022/08/05 07:18:04;;;;;;;3.42;1.20;;;20.10;99.90;;;;;;5054978;28;20044;-66
2022/08/05 07:20:30;;;;;;;3.58;1.50;;;20.30;99.90;;;;;;5067305;28;20037;-66
2022/08/05 07:22:55;;;;;;;4.28;1.50;;;20.30;99.90;;;;;;5067992;28;20109;-69
2022/08/05 07:25:21;;;;;;;5.85;1.13;;;20.20;99.90;;;;;;5068569;28;20048;-67
2022/08/05 07:27:52;;;;;;;3.92;1.17;;;20.10;99.90;;;;;;5065179;28;20049;-66
2022/08/05 07:30:18;;;;;;;2.58;1.25;;;20.30;99.90;;;;;;5050735;28;20093;-67
2022/08/05 07:32:44;;;;;;;4.40;1.20;;;20.60;99.90;;;;;;5067039;28;20139;-66
2022/08/05 07:35:13;;;;;;;7.25;1.42;;;20.90;99.90;;;;;;5063994;28;20056;-66
2022/08/05 07:37:42;;;;;;;3.30;1.38;;;21.10;99.90;;;;;;5067053;28;20056;-65
2022/08/05 07:40:10;;;;;;;5.85;1.10;;;21.30;99.90;;;;;;5063754;28;20676;-67
2022/08/05 07:42:36;;;;;;;3.83;1.27;;;21.20;99.90;;;;;;5054631;28;20269;-66
2022/08/05 07:45:02;;;;;;;3.83;1.33;;;21.10;99.90;;;;;;5072912;28;20051;-66
2022/08/05 07:47:27;;;;;;;5.57;1.23;;;20.90;99.90;;;;;;5034540;28;20219;-67
2022/08/05 07:49:53;;;;;;;5.05;1.50;;;20.80;99.90;;;;;;5071942;28;20040;-67
2022/08/05 07:52:19;;;;;;;2.67;1.13;;;20.80;99.90;;;;;;5072337;28;20086;-67
2022/08/05 07:54:48;;;;;;;3.20;1.20;;;21.00;99.90;;;;;;5051655;28;20037;-66
2022/08/05 07:57:15;;;;;;;5.40;1.20;;;21.30;99.90;;;;;;5061309;28;20482;-65
2022/08/05 07:59:40;;;;;;;2.80;1.10;;;21.50;99.90;;;;;;5067642;28;20095;-66
2022/08/05 08:02:10;;;;;;;4.18;1.10;;;21.70;99.90;;;;;;5053361;28;20490;-67
2022/08/05 08:04:38;;;;;;;3.20;1.00;;;21.80;99.90;;;;;;5072711;28;20048;-66
2022/08/05 08:07:05;;;;;;;3.50;1.00;;;21.70;99.90;;;;;;5036961;28;20041;-67
2022/08/05 08:09:34;;;;;;;2.97;1.00;;;21.60;99.90;;;;;;5072630;28;20123;-65
2022/08/05 08:12:00;;;;;;;4.68;1.38;;;21.70;99.90;;;;;;5071014;28;20883;-67
2022/08/05 08:14:25;;;;;;;4.80;1.05;;;21.60;99.90;;;;;;5051228;28;20089;-67
2022/08/05 08:16:51;;;;;;;4.60;1.20;;;21.50;99.90;;;;;;5061130;28;20414;-66
2022/08/05 08:19:17;;;;;;;3.28;1.40;;;21.40;99.90;;;;;;5054638;28;20048;-67
2022/08/05 08:21:42;;;;;;;5.78;1.17;;;21.50;99.90;;;;;;5052075;28;20040;-67
2022/08/05 08:24:08;;;;;;;3.33;0.98;;;21.80;99.90;;;;;;5052149;28;20044;-68
2022/08/05 08:26:34;;;;;;;2.63;1.10;;;22.00;99.90;;;;;;5052450;28;20080;-66
2022/08/05 08:29:00;;;;;;;6.03;1.23;;;22.10;99.90;;;;;;5051939;28;20123;-66
2022/08/05 08:31:25;;;;;;;3.42;1.17;;;22.00;99.90;;;;;;5057911;28;20037;-66
2022/08/05 08:33:51;;;;;;;4.95;1.23;;;21.90;99.90;;;;;;5041799;28;20403;-66
2022/08/05 08:36:18;;;;;;;3.67;1.17;;;21.70;99.90;;;;;;5034132;28;20136;-67
2022/08/05 08:38:43;;;;;;;2.58;1.20;;;21.60;99.90;;;;;;5052152;28;20049;-67
2022/08/05 08:41:11;;;;;;;4.57;1.10;;;21.20;99.90;;;;;;5066862;28;20045;-65
2022/08/05 08:43:39;;;;;;;4.38;1.25;;;20.90;99.90;;;;;;5045824;28;20037;-67
2022/08/05 08:46:05;;;;;;;3.92;1.00;;;20.70;99.90;;;;;;5071355;28;20083;-66
2022/08/05 08:48:33;;;;;;;2.45;0.98;;;20.80;99.90;;;;;;5072085;28;20044;-68
2022/08/05 08:51:00;;;;;;;4.85;1.10;;;21.10;99.90;;;;;;5059135;28;20052;-67
2022/08/05 08:53:33;;;;;;;2.97;1.10;;;21.30;99.90;;;;;;5063294;28;20056;-66
2022/08/05 08:56:02;;;;;;;5.38;1.30;;;21.50;99.90;;;;;;5052472;28;20033;-66
2022/08/05 08:58:31;;;;;;;3.65;1.10;;;21.40;99.90;;;;;;5055516;28;20051;-68
2022/08/05 09:00:57;;;;;;;3.17;0.85;;;21.30;99.90;;;;;;5070118;28;20056;-66
2022/08/05 09:03:24;;;;;;;2.72;1.30;;;21.20;99.90;;;;;;5048871;28;20033;-65
2022/08/05 09:05:49;;;;;;;2.47;0.88;;;21.40;99.90;;;;;;5074744;28;20482;-66
2022/08/05 09:08:16;;;;;;;4.45;1.00;;;21.50;99.90;;;;;;5057535;28;20086;-67
2022/08/05 09:10:43;;;;;;;2.92;1.25;;;21.70;99.90;;;;;;5062415;28;20394;-65
2022/08/05 09:13:13;;;;;;;5.22;1.08;;;21.90;99.90;;;;;;5038031;28;20063;-67
2022/08/05 09:15:39;;;;;;;2.70;0.70;;;21.70;99.90;;;;;;5055658;28;20515;-66
2022/08/05 09:18:09;;;;;;;2.25;1.00;;;21.60;99.90;;;;;;5071438;28;20048;-66
2022/08/05 09:20:40;;;;;;;4.85;1.20;;;21.80;99.60;;;;;;5074048;28;20043;-65
2022/08/05 09:23:10;;;;;;;1.48;0.90;;;21.80;99.90;;;;;;5032423;28;20060;-67
2022/08/05 09:25:41;;;;;;;2.95;1.15;;;22.00;99.90;;;;;;5057985;28;20084;-66
2022/08/05 09:28:12;;;;;;;3.92;1.00;;;22.20;98.70;;;;;;5057247;28;20049;-67
2022/08/05 09:30:42;;;;;;;4.32;0.93;;;22.00;98.30;;;;;;5057365;28;20072;-68
2022/08/05 09:33:10;;;;;;;3.80;1.20;;;21.90;98.80;;;;;;5065941;28;20557;-68
2022/08/05 09:35:51;;;;;;;1.48;0.77;;;21.90;99.20;;;;;;5069270;28;20048;-66
2022/08/05 09:38:18;;;;;;;1.67;0.95;;;21.90;98.30;;;;;;5056076;28;20044;-67
2022/08/05 09:40:44;;;;;;;;;;;22.00;97.70;;;;;;5061758;28;20439;-68
2022/08/05 09:43:32;;;;;;;3.17;1.20;;;21.80;97.40;;;;;;5054829;28;20016;-67
2022/08/05 09:46:01;;;;;;;6.05;1.30;;;21.60;98.30;;;;;;5055025;28;20098;-67
2022/08/05 09:48:32;;;;;;;5.07;1.00;;;21.60;98.00;;;;;;5035233;28;20128;-66
2022/08/05 09:51:10;;;;;;;3.22;0.82;;;21.70;97.20;;;;;;5055446;28;20041;-65
2022/08/05 09:53:51;;;;;;;3.50;1.15;;;21.50;96.50;;;;;;5064165;28;20556;-66
2022/08/05 09:56:28;;;;;;;3.67;1.05;;;21.30;97.00;;;;;;5055060;28;20503;-66
2022/08/05 09:59:08;;;;;;;7.15;0.98;;;21.20;97.40;;;;;;5055171;28;20041;-65
2022/08/05 10:01:37;;;;;;;3.15;1.00;;;21.10;96.40;;;;;;5070359;28;20041;-65
2022/08/05 10:04:12;;;;;;;2.47;0.85;;;21.10;97.10;;;;;;5074955;28;20048;-66
2022/08/05 10:06:55;;;;;;;2.42;1.13;;;21.20;97.00;;;;;;5040821;28;20043;-69
2022/08/05 10:09:24;;;;;;;1.92;0.80;;;21.30;96.30;;;;;;5074604;28;20131;-66
2022/08/05 10:11:49;;;;;;;5.10;1.25;;;21.50;96.40;;;;;;5063821;28;20041;-65
2022/08/05 10:14:22;;;;;;;2.33;0.85;;;21.60;96.60;;;;;;5053945;28;20045;-66
2022/08/05 10:16:51;;;;;;;5.18;1.10;;;21.70;95.10;;;;;;5040286;28;20048;-68
2022/08/05 10:19:17;;;;;;;1.70;1.02;;;21.80;93.40;;;;;;5074452;28;20139;-66
2022/08/05 10:21:44;;;;;;;6.03;0.75;;;21.90;93.70;;;;;;5056539;28;20495;-66
2022/08/05 10:24:13;;;;;;;2.67;0.75;;;22.10;93.50;;;;;;5056804;28;20493;-65
2022/08/05 10:26:47;;;;;;;4.68;0.90;;;22.40;93.90;;;;;;5068943;28;20078;-66
2022/08/05 10:29:14;;;;;;;1.85;0.70;;;22.60;92.90;;;;;;5054512;28;20045;-66
2022/08/05 10:31:40;;;;;;;4.22;0.80;;;22.90;90.40;;;;;;5049540;28;20083;-68
2022/08/05 10:34:08;;;;;;;4.68;0.63;;;23.10;85.80;;;;;;5056334;28;20059;-68
2022/08/05 10:36:34;;;;;;;;;;;23.30;84.60;;;;;;5065846;28;20076;-65
2022/08/05 10:39:09;;;;;;;2.10;0.70;;;23.50;81.40;;;;;;5064215;28;20011;-67
2022/08/05 10:41:46;;;;;;;3.83;1.05;;;23.40;80.60;;;;;;5073976;28;20044;-66
2022/08/05 10:44:17;;;;;;;1.30;0.52;;;23.50;79.70;;;;;;5040038;28;20478;-65
2022/08/05 10:46:49;;;;;;;2.30;0.60;;;23.60;75.20;;;;;;5019909;28;20467;-67
2022/08/05 10:49:15;;;;;;;2.90;0.50;;;23.70;76.70;;;;;;5073196;28;20051;-66
2022/08/05 10:51:48;;;;;;;2.08;0.70;;;23.90;76.50;;;;;;5042505;28;20095;-65
2022/08/05 10:54:14;;;;;;;2.42;0.50;;;24.20;77.40;;;;;;5072422;28;20045;-66
2022/08/05 10:56:46;;;;;;;5.45;0.80;;;24.50;75.30;;;;;;5062955;28;20048;-66
2022/08/05 10:59:18;;;;;;;2.42;0.50;;;24.50;75.10;;;;;;5053713;28;20455;-67
2022/08/05 11:01:44;;;;;;;1.77;0.60;;;24.30;73.30;;;;;;5053497;28;20051;-67
2022/08/05 11:04:19;;;;;;;3.13;0.60;;;23.80;71.60;;;;;;5051836;28;20040;-65
2022/08/05 11:07:03;;;;;;;1.30;0.57;;;23.70;75.10;;;;;;5056815;28;20130;-67
2022/08/05 11:09:41;;;;;;;4.10;0.80;;;24.00;75.50;;;;;;5053479;28;20049;-66
2022/08/05 11:12:42;;;;;;;5.50;0.70;;;24.40;74.40;;;;;;5053438;28;20053;-65
2022/08/05 11:15:28;;;;;;;2.60;0.63;;;24.70;74.90;;;;;;5063208;28;20119;-65
2022/08/05 11:18:05;;;;;;;6.78;1.17;;;24.90;72.00;;;;;;5071717;28;20051;-65
2022/08/05 11:20:37;;;;;;;2.25;0.88;;;24.50;72.80;;;;;;5072972;28;20051;-66
2022/08/05 11:23:45;;;;;;;2.53;0.70;;;24.50;72.50;;;;;;5072894;28;20048;-65
2022/08/05 11:26:20;;;;;;;4.63;0.75;;;24.60;73.20;;;;;;4968324;28;20568;-67
2022/08/05 11:28:51;;;;;;;2.88;0.80;;;24.60;73.30;;;;;;5043597;28;20164;-65
2022/08/05 11:31:26;;;;;;;1.70;0.95;;;24.50;72.50;;;;;;5035353;28;20234;-69
2022/08/05 11:34:01;;;;;;;4.93;0.90;;;24.50;72.70;;;;;;5061401;28;20530;-67
2022/08/05 11:36:50;;;;;;;4.45;1.02;;;24.60;72.20;;;;;;5052852;28;20048;-67
2022/08/05 11:39:53;;;;;;;2.70;0.80;;;24.30;75.00;;;;;;5051691;28;20091;-65
2022/08/05 11:42:23;;;;;;;1.45;0.80;;;23.40;78.10;;;;;;5036472;28;20110;-66
2022/08/05 11:44:49;;;;;;;2.55;0.82;;;22.70;79.40;;;;;;5036654;28;20528;-66
2022/08/05 11:47:20;;;;;;;3.63;0.90;;;22.60;80.00;;;;;;5048534;28;20041;-66
2022/08/05 11:49:46;;;;;;;4.97;1.02;;;22.80;79.70;;;;;;5069458;28;20055;-67
2022/08/05 11:52:12;;;;;;;4.05;0.93;;;22.90;79.20;;;;;;5070716;28;20107;-66
2022/08/05 11:54:39;;;;;;;3.35;0.63;;;23.00;78.40;;;;;;5052765;28;20376;-66
2022/08/05 11:57:07;;;;;;;3.63;0.70;;;22.90;79.70;;;;;;5059300;28;20037;-69
2022/08/05 11:59:33;;;;;;;3.70;0.85;;;22.80;81.30;;;;;;5072598;28;20087;-66
2022/08/05 12:02:04;;;;;;;2.58;0.70;;;22.50;82.30;;;;;;5072243;28;20068;-67
2022/08/05 12:04:37;;;;;;;2.15;0.80;;;22.30;83.10;;;;;;5052600;28;20040;-67
2022/08/05 12:07:05;;;;;;;2.35;0.90;;;22.20;84.60;;;;;;5053928;28;20098;-65
2022/08/05 12:09:40;;;;;;;1.52;0.65;;;22.20;84.70;;;;;;5050948;28;20052;-66
2022/08/05 12:12:09;;;;;;;4.28;1.00;;;22.10;85.60;;;;;;5052629;28;20055;-63
2022/08/05 12:14:36;;;;;;;3.53;1.05;;;21.90;86.10;;;;;;5052091;28;20040;-68
2022/08/05 12:17:10;;;;;;;3.40;0.80;;;21.60;86.80;;;;;;5072582;28;20391;-67
2022/08/05 12:19:49;;;;;;;3.10;0.90;;;21.30;87.60;;;;;;5036738;28;20086;-67
2022/08/05 12:22:26;;;;;;;3.88;0.95;;;21.10;89.50;;;;;;5052236;28;20106;-67
2022/08/05 12:24:54;;;;;;;3.95;0.90;;;21.00;89.50;;;;;;5051189;28;20036;-66
2022/08/05 12:27:22;;;;;;;1.63;0.90;;;21.00;89.30;;;;;;5034566;28;20037;-65
2022/08/05 12:29:59;;;;;;;4.88;1.08;;;21.30;88.10;;;;;;5068230;28;20041;-67
2022/08/05 12:32:24;;;;;;;5.38;1.02;;;21.60;87.90;;;;;;5072383;28;20064;-66
2022/08/05 12:34:50;;;;;;;4.25;0.95;;;21.80;82.90;;;;;;5062782;28;20103;-64
2022/08/05 12:37:16;;;;;;;3.60;0.90;;;21.60;83.80;;;;;;5035747;28;20575;-66
2022/08/05 12:39:42;;;;;;;4.10;1.00;;;21.30;83.70;;;;;;5053203;28;20032;-66
2022/08/05 12:42:17;;;;;;;2.60;1.10;;;21.20;86.20;;;;;;5072752;28;20041;-67
2022/08/05 12:44:44;;;;;;;3.63;0.95;;;21.40;87.60;;;;;;5047657;28;20058;-67
2022/08/05 12:47:10;;;;;;;2.03;0.80;;;21.80;86.20;;;;;;5056848;28;20068;-67
2022/08/05 12:49:50;;;;;;;5.53;1.33;;;22.20;84.70;;;;;;5074661;28;20392;-64
2022/08/05 12:52:18;;;;;;;4.20;0.95;;;22.50;83.90;;;;;;5068230;28;20079;-66
2022/08/05 12:54:47;;;;;;;1.92;0.75;;;22.40;83.40;;;;;;5076530;28;20044;-68
2022/08/05 12:57:13;;;;;;;4.70;0.88;;;22.20;83.10;;;;;;5076206;28;20061;-68
2022/08/05 12:59:45;;;;;;;3.88;1.00;;;22.00;83.80;;;;;;5074469;28;20033;-65
2022/08/05 13:02:24;;;;;;;4.50;0.93;;;21.80;84.10;;;;;;5054109;28;20064;-67
2022/08/05 13:04:51;;;;;;;6.10;1.17;;;21.60;84.90;;;;;;5062140;28;20036;-66